Potsdam, NY

44° 42' 44"N, 74° 57' 12"W, Elevation 460 ft.
Eastern Time

Hourly observations for the last 72 hours

Date Time Temperature (°F) Humi-
dity

(%)
Wind
(mph)
Pressure Rain (in)
Air Dew 6 Hour 1 Hr 3 Hr 6 Hr Day
Alt
(in)
Sea
Level

(mb)
Max Min
21 17:00 37.8 32.5 81 Calm 29.97 1015.1 0.00
21 16:00 37.8 32.5 81 Calm 30.01 1016.5 0.00
21 15:00 39.4 32.5 76 Calm 30.03 1017.1 0.00
21 14:00 39.5 31.9 74 Calm 30.07 1018.4 0.00
21 13:00 39.3 32.0 39.4 31.5 75 Calm 30.10 1019.5 0.00
21 12:00 38.7 32.4 78 Calm 30.12 1020.0 0.00
21 11:00 31.5 25.7 79 Calm 30.15 1021.1 0.00
21 10:00 31.5 25.7 79 Calm 30.17 1021.8 0.00
21 09:00 31.5 25.7 79 Calm 30.18 1022.2 0.00
21 08:00 31.5 25.7 79 Calm 30.19 1022.5 0.00
21 07:00 31.5 25.7 31.5 31.5 79 Calm 30.19 1022.3 0.00
21 06:00 31.5 25.7 79 Calm 30.19 1022.2 0.00
21 05:00 31.5 25.7 79 Calm 30.18 1022.0 0.00
21 04:00 31.5 25.7 79 Calm 30.17 1021.8 0.00
21 03:00 31.5 25.7 79 Calm 30.18 1022.2 0.00
21 02:00 31.5 25.7 79 Calm 30.18 1022.1 0.00
21 01:00 31.5 25.7 31.5 31.5 79 Calm 30.17 1021.7 0.00
21 00:00 31.5 25.7 79 Calm 30.17 1021.6 0.00
20 23:00 31.5 25.7 79 Calm 30.15 1021.1 0.00
20 22:00 31.5 25.7 79 Calm 30.14 1020.7 0.00
20 21:00 31.5 25.7 79 Calm 30.14 1020.6 0.00
20 20:00 31.5 25.7 79 Calm 30.13 1020.3 0.00
20 19:00 31.5 25.7 31.5 31.5 79 Calm 30.12 1020.0 0.00
20 18:00 31.5 25.7 79 Calm 30.11 1019.6 0.00
20 17:00 31.5 25.7 79 Calm 30.09 1018.9 0.00
20 16:00 31.5 25.7 79 Calm 30.09 1019.0 0.00
20 15:00 31.5 25.7 79 Calm 30.07 1018.5 0.00
20 14:00 31.5 25.7 79 Calm 30.06 1018.1 0.00
20 13:00 31.5 25.7 31.5 31.5 79 Calm 30.06 1018.0 0.00
20 12:00 31.5 25.7 79 Calm 30.05 1017.6 0.00
20 11:00 31.5 25.7 79 Calm 30.05 1017.6 0.00
20 10:00 31.5 25.7 79 Calm 30.04 1017.4 0.00
20 09:00 31.5 25.7 79 Calm 30.04 1017.3 0.00
20 08:00 31.5 25.7 79 Calm 30.03 1016.9 0.00
20 07:00 31.5 25.7 31.5 31.5 79 Calm 30.02 1016.6 0.00
20 06:00 31.5 25.7 79 Calm 30.00 1015.8 0.00
20 05:00 31.5 25.7 79 Calm 29.98 1015.2 0.00
20 04:00 31.5 25.7 79 Calm 29.96 1014.7 0.00
20 03:00 31.5 25.7 79 Calm 29.95 1014.4 0.00
20 02:00 31.5 25.7 79 Calm 29.95 1014.2 0.00
20 01:00 31.5 25.7 31.5 31.5 79 Calm 29.93 1013.7 0.00
20 00:00 31.5 25.7 79 Calm 29.93 1013.7 0.00
19 23:00 31.5 25.7 79 Calm 29.93 1013.6 0.00
19 22:00 31.5 25.7 79 Calm 29.93 1013.7 0.00
19 21:00 31.5 25.7 79 Calm 29.92 1013.2 0.00
19 20:00 31.5 25.7 79 Calm 29.92 1013.3 0.00
19 19:00 31.5 25.7 34.6 31.5 79 Calm 29.92 1013.2 0.00
19 18:00 31.5 25.7 79 Calm 29.90 1012.6 0.00
19 17:00 31.5 25.7 79 Calm 29.87 1011.6 0.00
19 16:00 31.9 26.1 79 Calm 29.86 1011.2 0.00
19 15:00 34.4 27.0 74 Calm 29.84 1010.5 0.00
19 14:00 33.8 26.7 75 Calm 29.83 1010.2 0.00
19 13:00 33.4 27.3 33.5 29.3 78 Calm 29.82 1009.9 0.00
19 12:00 31.5 27.2 84 Calm 29.82 1009.9 0.00
19 11:00 29.8 26.7 88 Calm 29.82 1009.7 0.00
19 10:00 31.2 24.2 75 Calm 29.82 1009.9 0.00
19 09:00 31.2 24.2 75 Calm 29.81 1009.4 0.00
19 08:00 31.2 24.2 75 Calm 29.80 1009.2 0.00
19 07:00 31.2 24.2 31.2 31.2 75 Calm 29.79 1008.9 0.00
19 06:00 31.2 24.2 75 Calm 29.77 1008.2 0.00
19 05:00 31.2 24.2 75 Calm 29.77 1008.1 0.00
19 04:00 31.2 24.2 75 Calm 29.76 1008.0 0.00
19 03:00 31.2 24.2 75 Calm 29.77 1008.3 0.00
19 02:00 31.2 24.2 75 Calm 29.78 1008.4 0.00
19 01:00 31.2 24.2 31.2 31.2 75 Calm 29.77 1008.2 0.00
19 00:00 31.2 24.2 75 Calm 29.78 1008.5 0.00
18 23:00 31.2 24.2 75 Calm 29.78 1008.4 0.00
18 22:00 31.2 24.2 75 Calm 29.78 1008.6 0.00
18 21:00 31.2 24.2 75 Calm 29.80 1009.2 0.00
18 20:00 31.2 24.2 75 Calm 29.81 1009.7 0.00
18 19:00 31.2 24.2 35.1 31.2 75 Calm 29.83 1010.2 0.00
18 18:00 31.2 24.2 75 Calm 29.84 1010.6 0.00

Data generated by WxSolution Version 1.9.1.5, Build 2018.05.20.